Sapelo Island, GA (31327)

4:50 AM EDT on August 28, 2016 (GMT -0400)
Fairhope - Sapelo River | | Change Station
Active Advisory: Coastal Hazard Statement

Elev 5 ft 31.54 °N, 81.39 °W | Updated 4 minutes ago

Clear
Clear
74.7 °F
Feels Like 73 °F
N
2.0
Wind Variable Wind from NNW
Gusts 3.0 mph

Today
High -- | Low -- °F
--% Chance of Precip.
Yesterday
High -- | Low -- °F
Precip. -- in
Pressure 30.04 in
Visibility 10.0 miles
Clouds Clear
Heat Index 73 °F
Dew Point 72 °F
Humidity 93%
Rainfall 0.00 in
Snow Depth Not available.
6:58 AM 7:52 PM
Waning Crescent, 17% visible
METAR KBQK 280835Z AUTO 04003KT 10SM CLR 25/25 A3004 RMK AO2
Pressure 30.04 in
Visibility 10.0 miles
Clouds Clear
Heat Index 73 °F
Dew Point 72 °F
Humidity 93%
Rainfall 0.00 in
Snow Depth Not available.
6:58 AM 7:52 PM
Waning Crescent, 17% visible
METAR KBQK 280835Z AUTO 04003KT 10SM CLR 25/25 A3004 RMK AO2

10-Day Weather Forecast

Almanac

Astronomy

Aug. 28, 2016 Rise Set
Actual Time
Civil Twilight
Nautical Twilight
Astronomical Twilight
Moon
Length of Visible Light
Length of Day
Tomorrow will be .
, % of the Moon is Illuminated

Today's Extremes

State Highs State Lows

Community

WunderPhotos

Upload Photos

1,935,540 photos uploaded!

WunderBlog® & News

Nearby

Air Quality

  Air Quality AQ Index Pollutant
Not available.

Snow Depth

Station Depth Elevation

Earthquake Activity

City Distance Mag. Time & Date
Minimum magnitude displayed is 2.5.

Coastal Water Temperatures

Place Temperature

Stations

Nearby Weather Stations

Station Location Temp. Windchill Dew Point Humidity Wind Precip. Elev Updated Type
                   

Watches & Warnings

Coastal Hazard Statement
Issued: 3:14 AM EDT Aug. 28, 2016 – National Weather Service

... High rip current risk remains in effect from 8 am EDT this
morning through this evening...

* rip currents... wind and wave conditions support the
development of very strong rip currents. These rip currents
will be life threatening to anyone who enters the surf.

Precautionary/preparedness actions...

No one should enter the surf due to life threatening rip
currents.